Terminal Aerodrome Forecast
Issued by NWS Melbourne, FL

Current Version | Previous Version | Text Only | Print | Product List | Glossary On
Versions: 1 2 3 4 5 6 7 8 9
711
FTUS42 KMLB 252320
TAFDAB
TAF
KDAB 252320Z 2600/2624 25010KT P6SM BKN250
     FM260300 24003KT P6SM SKC
     FM261500 23007KT P6SM FEW040
     FM261800 14008KT P6SM SCT040=

USA.gov is the U.S. government's official web portal to all federal, state and local government web resources and services.